sensor_id;sensor_type;location;lat;lon;timestamp;pressure;altitude;pressure_sealevel;temperature;humidity
59274;BME280;45044;41.572;24.730;2023-07-22T00:01:40;91577.47;;;17.97;100.00
59274;BME280;45044;41.572;24.730;2023-07-22T00:04:07;91574.91;;;17.73;100.00
59274;BME280;45044;41.572;24.730;2023-07-22T00:06:33;91578.06;;;17.68;100.00
59274;BME280;45044;41.572;24.730;2023-07-22T00:09:00;91578.06;;;17.68;100.00
59274;BME280;45044;41.572;24.730;2023-07-22T00:11:27;91571.69;;;17.82;100.00
59274;BME280;45044;41.572;24.730;2023-07-22T00:13:53;91569.59;;;17.73;100.00
59274;BME280;45044;41.572;24.730;2023-07-22T00:16:20;91563.22;;;17.87;100.00
59274;BME280;45044;41.572;24.730;2023-07-22T00:18:47;91564.81;;;17.84;100.00
59274;BME280;45044;41.572;24.730;2023-07-22T00:21:14;91558.66;;;17.88;100.00
59274;BME280;45044;41.572;24.730;2023-07-22T00:23:41;91557.91;;;17.87;100.00
59274;BME280;45044;41.572;24.730;2023-07-22T00:26:08;91562.00;;;17.92;100.00
59274;BME280;45044;41.572;24.730;2023-07-22T00:28:35;91549.66;;;17.81;100.00
59274;BME280;45044;41.572;24.730;2023-07-22T00:31:03;91548.78;;;17.51;100.00
59274;BME280;45044;41.572;24.730;2023-07-22T00:33:30;91557.59;;;17.65;100.00
59274;BME280;45044;41.572;24.730;2023-07-22T00:35:56;91557.38;;;17.76;100.00
59274;BME280;45044;41.572;24.730;2023-07-22T00:38:23;91546.81;;;17.72;100.00
59274;BME280;45044;41.572;24.730;2023-07-22T00:40:50;91548.56;;;17.62;100.00
59274;BME280;45044;41.572;24.730;2023-07-22T00:43:17;91545.25;;;17.75;100.00
59274;BME280;45044;41.572;24.730;2023-07-22T00:45:44;91552.59;;;17.50;100.00
59274;BME280;45044;41.572;24.730;2023-07-22T00:48:10;91541.97;;;17.50;100.00
59274;BME280;45044;41.572;24.730;2023-07-22T00:50:39;91549.47;;;17.55;100.00
59274;BME280;45044;41.572;24.730;2023-07-22T00:53:06;91545.81;;;17.66;100.00
59274;BME280;45044;41.572;24.730;2023-07-22T00:55:33;91537.84;;;17.66;100.00
59274;BME280;45044;41.572;24.730;2023-07-22T00:58:01;91549.31;;;17.63;100.00
59274;BME280;45044;41.572;24.730;2023-07-22T01:00:28;91540.31;;;17.56;100.00
59274;BME280;45044;41.572;24.730;2023-07-22T01:02:55;91543.59;;;17.44;100.00
59274;BME280;45044;41.572;24.730;2023-07-22T01:05:22;91539.75;;;17.28;100.00
59274;BME280;45044;41.572;24.730;2023-07-22T01:07:50;91542.50;;;17.41;100.00
59274;BME280;45044;41.572;24.730;2023-07-22T01:10:17;91537.63;;;17.40;100.00
59274;BME280;45044;41.572;24.730;2023-07-22T01:12:44;91536.59;;;17.33;100.00
59274;BME280;45044;41.572;24.730;2023-07-22T01:15:11;91533.34;;;17.26;100.00
59274;BME280;45044;41.572;24.730;2023-07-22T01:17:38;91531.47;;;17.02;100.00
59274;BME280;45044;41.572;24.730;2023-07-22T01:20:06;91531.34;;;17.09;100.00
59274;BME280;45044;41.572;24.730;2023-07-22T01:22:33;91536.41;;;17.24;100.00
59274;BME280;45044;41.572;24.730;2023-07-22T01:25:00;91536.59;;;17.33;100.00
59274;BME280;45044;41.572;24.730;2023-07-22T01:27:28;91534.00;;;17.50;100.00
59274;BME280;45044;41.572;24.730;2023-07-22T01:29:56;91536.81;;;17.43;100.00
59274;BME280;45044;41.572;24.730;2023-07-22T01:32:22;91527.66;;;17.44;100.00
59274;BME280;45044;41.572;24.730;2023-07-22T01:34:49;91527.94;;;17.50;100.00
59274;BME280;45044;41.572;24.730;2023-07-22T01:37:17;91529.97;;;17.42;100.00
59274;BME280;45044;41.572;24.730;2023-07-22T01:39:43;91529.59;;;17.23;100.00
59274;BME280;45044;41.572;24.730;2023-07-22T01:42:10;91538.41;;;16.96;100.00
59274;BME280;45044;41.572;24.730;2023-07-22T01:44:37;91547.94;;;17.17;100.00
59274;BME280;45044;41.572;24.730;2023-07-22T01:47:04;91539.00;;;17.28;100.00
59274;BME280;45044;41.572;24.730;2023-07-22T01:49:30;91533.13;;;17.36;100.00
59274;BME280;45044;41.572;24.730;2023-07-22T01:51:57;91532.56;;;17.45;100.00
59274;BME280;45044;41.572;24.730;2023-07-22T01:54:24;91524.88;;;17.51;100.00
59274;BME280;45044;41.572;24.730;2023-07-22T01:56:51;91521.09;;;17.48;100.00
59274;BME280;45044;41.572;24.730;2023-07-22T01:59:17;91527.59;;;17.47;100.00
59274;BME280;45044;41.572;24.730;2023-07-22T02:01:44;91537.47;;;17.47;100.00
59274;BME280;45044;41.572;24.730;2023-07-22T02:04:11;91529.50;;;17.47;100.00
59274;BME280;45044;41.572;24.730;2023-07-22T02:06:38;91525.50;;;17.39;100.00
59274;BME280;45044;41.572;24.730;2023-07-22T02:09:05;91537.22;;;17.21;100.00
59274;BME280;45044;41.572;24.730;2023-07-22T02:11:40;91544.50;;;17.17;100.00
59274;BME280;45044;41.572;24.730;2023-07-22T02:14:07;91546.06;;;17.14;100.00
59274;BME280;45044;41.572;24.730;2023-07-22T02:16:37;91545.38;;;17.10;100.00
59274;BME280;45044;41.572;24.730;2023-07-22T02:19:04;91552.13;;;17.15;100.00
59274;BME280;45044;41.572;24.730;2023-07-22T02:21:30;91550.97;;;17.16;100.00
59274;BME280;45044;41.572;24.730;2023-07-22T02:23:57;91555.81;;;17.21;100.00
59274;BME280;45044;41.572;24.730;2023-07-22T02:26:24;91555.91;;;17.17;100.00
59274;BME280;45044;41.572;24.730;2023-07-22T02:28:51;91543.00;;;17.16;100.00
59274;BME280;45044;41.572;24.730;2023-07-22T02:31:18;91555.91;;;17.17;100.00
59274;BME280;45044;41.572;24.730;2023-07-22T02:33:45;91563.09;;;17.17;100.00
59274;BME280;45044;41.572;24.730;2023-07-22T02:36:13;91560.03;;;17.18;100.00
59274;BME280;45044;41.572;24.730;2023-07-22T02:38:40;91568.91;;;17.11;100.00
59274;BME280;45044;41.572;24.730;2023-07-22T02:41:07;91564.16;;;16.99;100.00
59274;BME280;45044;41.572;24.730;2023-07-22T02:43:34;91560.28;;;17.04;100.00
59274;BME280;45044;41.572;24.730;2023-07-22T02:46:03;91566.59;;;17.14;100.00
59274;BME280;45044;41.572;24.730;2023-07-22T02:48:31;91555.84;;;16.97;100.00
59274;BME280;45044;41.572;24.730;2023-07-22T02:51:04;91564.97;;;16.96;100.00
59274;BME280;45044;41.572;24.730;2023-07-22T02:53:32;91570.53;;;16.81;100.00
59274;BME280;45044;41.572;24.730;2023-07-22T02:56:00;91570.34;;;16.92;100.00
59274;BME280;45044;41.572;24.730;2023-07-22T02:58:27;91574.78;;;16.99;100.00
59274;BME280;45044;41.572;24.730;2023-07-22T03:00:53;91573.97;;;17.02;100.00
59274;BME280;45044;41.572;24.730;2023-07-22T03:03:24;91567.84;;;17.05;100.00
59274;BME280;45044;41.572;24.730;2023-07-22T03:05:51;91565.78;;;16.93;100.00
59274;BME280;45044;41.572;24.730;2023-07-22T03:08:18;91565.09;;;16.88;100.00
59274;BME280;45044;41.572;24.730;2023-07-22T03:10:45;91572.91;;;16.75;100.00
59274;BME280;45044;41.572;24.730;2023-07-22T03:13:15;91574.59;;;16.66;100.00
59274;BME280;45044;41.572;24.730;2023-07-22T03:15:42;91569.97;;;16.70;100.00
59274;BME280;45044;41.572;24.730;2023-07-22T03:18:09;91572.91;;;16.75;100.00
59274;BME280;45044;41.572;24.730;2023-07-22T03:20:37;91565.69;;;16.76;100.00
59274;BME280;45044;41.572;24.730;2023-07-22T03:23:04;91578.03;;;16.86;100.00
59274;BME280;45044;41.572;24.730;2023-07-22T03:25:34;91566.72;;;16.82;100.00
59274;BME280;45044;41.572;24.730;2023-07-22T03:28:03;91566.94;;;16.92;100.00
59274;BME280;45044;41.572;24.730;2023-07-22T03:30:31;91565.22;;;16.81;100.00
59274;BME280;45044;41.572;24.730;2023-07-22T03:32:57;91568.63;;;16.58;100.00
59274;BME280;45044;41.572;24.730;2023-07-22T03:35:25;91576.84;;;16.67;100.00
59274;BME280;45044;41.572;24.730;2023-07-22T03:37:52;91569.38;;;16.82;100.00
59274;BME280;45044;41.572;24.730;2023-07-22T03:40:19;91561.41;;;16.82;100.00
59274;BME280;45044;41.572;24.730;2023-07-22T03:42:48;91581.91;;;16.82;100.00
59274;BME280;45044;41.572;24.730;2023-07-22T03:45:15;91580.47;;;16.77;100.00
59274;BME280;45044;41.572;24.730;2023-07-22T03:47:44;91580.06;;;16.79;100.00
59274;BME280;45044;41.572;24.730;2023-07-22T03:50:12;91571.91;;;16.90;100.00
59274;BME280;45044;41.572;24.730;2023-07-22T03:52:39;91570.22;;;16.99;100.00
59274;BME280;45044;41.572;24.730;2023-07-22T03:55:06;91563.34;;;17.02;100.00
59274;BME280;45044;41.572;24.730;2023-07-22T03:57:33;91561.72;;;17.08;100.00
59274;BME280;45044;41.572;24.730;2023-07-22T04:00:02;91557.78;;;17.17;100.00
59274;BME280;45044;41.572;24.730;2023-07-22T04:02:30;91547.25;;;17.13;100.00
59274;BME280;45044;41.572;24.730;2023-07-22T04:04:57;91562.84;;;17.31;100.00
59274;BME280;45044;41.572;24.730;2023-07-22T04:07:24;91565.69;;;17.41;100.00
59274;BME280;45044;41.572;24.730;2023-07-22T04:09:51;91572.78;;;17.27;100.00
59274;BME280;45044;41.572;24.730;2023-07-22T04:12:17;91568.53;;;17.09;100.00
59274;BME280;45044;41.572;24.730;2023-07-22T04:14:44;91570.19;;;17.23;100.00
59274;BME280;45044;41.572;24.730;2023-07-22T04:17:11;91563.81;;;16.97;100.00
59274;BME280;45044;41.572;24.730;2023-07-22T04:19:45;91558.41;;;17.24;100.00
59274;BME280;45044;41.572;24.730;2023-07-22T04:22:12;91550.38;;;17.28;100.00
59274;BME280;45044;41.572;24.730;2023-07-22T04:24:39;91560.09;;;17.55;100.00
59274;BME280;45044;41.572;24.730;2023-07-22T04:27:06;91565.25;;;17.63;100.00
59274;BME280;45044;41.572;24.730;2023-07-22T04:29:33;91562.78;;;17.72;100.00
59274;BME280;45044;41.572;24.730;2023-07-22T04:32:01;91568.34;;;17.78;100.00
59274;BME280;45044;41.572;24.730;2023-07-22T04:34:32;91561.59;;;17.93;100.00
59274;BME280;45044;41.572;24.730;2023-07-22T04:36:58;91561.34;;;18.04;100.00
59274;BME280;45044;41.572;24.730;2023-07-22T04:39:25;91558.88;;;18.14;100.00
59274;BME280;45044;41.572;24.730;2023-07-22T04:41:52;91552.56;;;18.24;100.00
59274;BME280;45044;41.572;24.730;2023-07-22T04:44:20;91558.53;;;18.28;100.00
59274;BME280;45044;41.572;24.730;2023-07-22T04:46:46;91559.03;;;18.40;100.00
59274;BME280;45044;41.572;24.730;2023-07-22T04:49:13;91565.22;;;18.37;100.00
59274;BME280;45044;41.572;24.730;2023-07-22T04:51:47;91564.13;;;18.51;100.00
59274;BME280;45044;41.572;24.730;2023-07-22T04:54:14;91556.53;;;19.12;100.00
59274;BME280;45044;41.572;24.730;2023-07-22T04:56:42;91571.41;;;20.83;100.00
59274;BME280;45044;41.572;24.730;2023-07-22T04:59:09;91576.81;;;22.36;100.00
59274;BME280;45044;41.572;24.730;2023-07-22T05:01:37;91594.16;;;23.95;100.00
59274;BME280;45044;41.572;24.730;2023-07-22T05:04:04;91602.13;;;25.31;100.00
59274;BME280;45044;41.572;24.730;2023-07-22T05:06:32;91606.00;;;26.30;100.00
59274;BME280;45044;41.572;24.730;2023-07-22T05:08:59;91596.72;;;27.24;100.00
59274;BME280;45044;41.572;24.730;2023-07-22T05:11:26;91599.88;;;27.70;100.00
59274;BME280;45044;41.572;24.730;2023-07-22T05:13:53;91605.78;;;28.27;100.00
59274;BME280;45044;41.572;24.730;2023-07-22T05:16:19;91597.91;;;29.05;100.00
59274;BME280;45044;41.572;24.730;2023-07-22T05:18:48;91600.50;;;29.44;100.00
59274;BME280;45044;41.572;24.730;2023-07-22T05:21:15;91603.59;;;29.19;100.00
59274;BME280;45044;41.572;24.730;2023-07-22T05:23:42;91593.72;;;29.77;100.00
59274;BME280;45044;41.572;24.730;2023-07-22T05:26:09;91596.16;;;30.61;100.00
59274;BME280;45044;41.572;24.730;2023-07-22T05:28:35;91588.09;;;31.26;100.00
59274;BME280;45044;41.572;24.730;2023-07-22T05:31:02;91592.13;;;31.62;100.00
59274;BME280;45044;41.572;24.730;2023-07-22T05:33:29;91587.59;;;32.18;99.42
59274;BME280;45044;41.572;24.730;2023-07-22T05:35:56;91583.78;;;32.83;91.05
59274;BME280;45044;41.572;24.730;2023-07-22T05:38:23;91590.75;;;33.03;87.48
59274;BME280;45044;41.572;24.730;2023-07-22T05:40:52;91586.63;;;32.96;90.19
59274;BME280;45044;41.572;24.730;2023-07-22T05:43:19;91581.22;;;33.16;88.22
59274;BME280;45044;41.572;24.730;2023-07-22T05:45:45;91572.69;;;33.64;84.88
59274;BME280;45044;41.572;24.730;2023-07-22T05:48:12;91584.13;;;34.14;80.60
59274;BME280;45044;41.572;24.730;2023-07-22T05:50:39;91572.97;;;34.32;77.26
59274;BME280;45044;41.572;24.730;2023-07-22T05:53:05;91576.41;;;35.06;74.59
59274;BME280;45044;41.572;24.730;2023-07-22T05:55:32;91576.56;;;35.48;74.60
59274;BME280;45044;41.572;24.730;2023-07-22T05:57:59;91564.88;;;34.86;78.76
59274;BME280;45044;41.572;24.730;2023-07-22T06:00:33;91567.56;;;35.27;73.24
59274;BME280;45044;41.572;24.730;2023-07-22T06:03:00;91560.53;;;35.66;68.20
59274;BME280;45044;41.572;24.730;2023-07-22T06:05:27;91553.59;;;36.22;62.13
59274;BME280;45044;41.572;24.730;2023-07-22T06:07:53;91557.94;;;36.67;60.18
59274;BME280;45044;41.572;24.730;2023-07-22T06:10:21;91561.25;;;37.03;58.43
59274;BME280;45044;41.572;24.730;2023-07-22T06:12:48;91562.94;;;36.48;58.25
59274;BME280;45044;41.572;24.730;2023-07-22T06:15:15;91562.19;;;34.53;71.70
59274;BME280;45044;41.572;24.730;2023-07-22T06:17:42;91573.56;;;35.39;67.92
59274;BME280;45044;41.572;24.730;2023-07-22T06:20:09;91551.41;;;35.99;63.86
59274;BME280;45044;41.572;24.730;2023-07-22T06:22:36;91574.31;;;35.95;63.54
59274;BME280;45044;41.572;24.730;2023-07-22T06:25:04;91574.56;;;36.40;63.27
59274;BME280;45044;41.572;24.730;2023-07-22T06:27:33;91573.88;;;36.48;58.89
59274;BME280;45044;41.572;24.730;2023-07-22T06:30:00;91558.22;;;37.14;55.12
59274;BME280;45044;41.572;24.730;2023-07-22T06:32:27;91571.09;;;37.35;54.11
59274;BME280;45044;41.572;24.730;2023-07-22T06:34:57;91567.81;;;37.97;53.61
59274;BME280;45044;41.572;24.730;2023-07-22T06:37:24;91572.53;;;37.29;57.96
59274;BME280;45044;41.572;24.730;2023-07-22T06:39:51;91562.44;;;37.60;54.64
59274;BME280;45044;41.572;24.730;2023-07-22T06:42:18;91564.50;;;37.83;54.61
59274;BME280;45044;41.572;24.730;2023-07-22T06:44:45;91557.78;;;38.00;55.04
59274;BME280;45044;41.572;24.730;2023-07-22T06:47:12;91555.00;;;37.84;56.66
59274;BME280;45044;41.572;24.730;2023-07-22T06:49:40;91558.88;;;38.67;51.82
59274;BME280;45044;41.572;24.730;2023-07-22T06:52:10;91551.03;;;38.64;51.86
59274;BME280;45044;41.572;24.730;2023-07-22T06:54:37;91550.47;;;38.57;52.40
59274;BME280;45044;41.572;24.730;2023-07-22T06:57:04;91547.16;;;38.67;53.26
59274;BME280;45044;41.572;24.730;2023-07-22T06:59:32;91553.53;;;39.50;50.04
59274;BME280;45044;41.572;24.730;2023-07-22T07:01:59;91552.94;;;39.67;48.46
59274;BME280;45044;41.572;24.730;2023-07-22T07:04:26;91549.16;;;38.90;52.65
59274;BME280;45044;41.572;24.730;2023-07-22T07:06:54;91549.00;;;39.86;51.31
59274;BME280;45044;41.572;24.730;2023-07-22T07:09:21;91560.41;;;39.74;52.76
59274;BME280;45044;41.572;24.730;2023-07-22T07:11:47;91556.56;;;39.28;56.68
59274;BME280;45044;41.572;24.730;2023-07-22T07:14:14;91560.13;;;39.55;54.86
59274;BME280;45044;41.572;24.730;2023-07-22T07:16:41;91542.78;;;39.78;54.40
59274;BME280;45044;41.572;24.730;2023-07-22T07:19:08;91562.94;;;38.35;62.62
59274;BME280;45044;41.572;24.730;2023-07-22T07:21:35;91555.84;;;37.63;69.99
59274;BME280;45044;41.572;24.730;2023-07-22T07:24:02;91555.47;;;37.59;62.42
59274;BME280;45044;41.572;24.730;2023-07-22T07:26:29;91556.84;;;38.21;58.45
59274;BME280;45044;41.572;24.730;2023-07-22T07:28:56;91563.19;;;39.25;58.37
59274;BME280;45044;41.572;24.730;2023-07-22T07:31:23;91552.66;;;38.20;66.89
59274;BME280;45044;41.572;24.730;2023-07-22T07:33:50;91552.63;;;38.04;64.94
59274;BME280;45044;41.572;24.730;2023-07-22T07:36:17;91559.22;;;37.85;62.21
59274;BME280;45044;41.572;24.730;2023-07-22T07:38:44;91556.22;;;39.16;57.99
59274;BME280;45044;41.572;24.730;2023-07-22T07:41:11;91550.63;;;37.89;65.12
59274;BME280;45044;41.572;24.730;2023-07-22T07:43:40;91545.66;;;36.82;76.92
59274;BME280;45044;41.572;24.730;2023-07-22T07:46:21;91555.69;;;36.58;86.27
59274;BME280;45044;41.572;24.730;2023-07-22T07:48:54;91548.63;;;36.92;79.74
59274;BME280;45044;41.572;24.730;2023-07-22T07:51:23;91550.59;;;35.90;85.57
59274;BME280;45044;41.572;24.730;2023-07-22T07:53:51;91550.97;;;36.59;82.22
59274;BME280;45044;41.572;24.730;2023-07-22T07:56:19;91550.47;;;35.96;97.46
59274;BME280;45044;41.572;24.730;2023-07-22T07:58:47;91549.00;;;35.60;98.68
59274;BME280;45044;41.572;24.730;2023-07-22T08:01:14;91551.31;;;34.94;100.00
59274;BME280;45044;41.572;24.730;2023-07-22T08:03:42;91556.94;;;33.95;100.00
59274;BME280;45044;41.572;24.730;2023-07-22T08:06:10;91552.00;;;32.97;100.00
59274;BME280;45044;41.572;24.730;2023-07-22T08:08:38;91553.44;;;33.42;100.00
59274;BME280;45044;41.572;24.730;2023-07-22T08:11:10;91556.25;;;33.89;100.00
59274;BME280;45044;41.572;24.730;2023-07-22T08:13:40;91552.53;;;34.05;100.00
59274;BME280;45044;41.572;24.730;2023-07-22T08:16:09;91560.63;;;33.59;97.98
59274;BME280;45044;41.572;24.730;2023-07-22T08:18:36;91551.88;;;32.33;100.00
59274;BME280;45044;41.572;24.730;2023-07-22T08:21:04;91550.44;;;32.26;100.00
59274;BME280;45044;41.572;24.730;2023-07-22T08:23:33;91548.22;;;33.00;100.00
59274;BME280;45044;41.572;24.730;2023-07-22T08:26:00;91542.69;;;33.31;93.68
59274;BME280;45044;41.572;24.730;2023-07-22T08:28:27;91541.31;;;32.99;96.21
59274;BME280;45044;41.572;24.730;2023-07-22T08:30:55;91538.81;;;33.01;91.07
59274;BME280;45044;41.572;24.730;2023-07-22T08:33:23;91528.53;;;32.44;83.42
59274;BME280;45044;41.572;24.730;2023-07-22T08:36:06;91529.56;;;32.66;81.81
59274;BME280;45044;41.572;24.730;2023-07-22T08:38:33;91532.56;;;33.06;99.72
59274;BME280;45044;41.572;24.730;2023-07-22T08:41:01;91535.81;;;33.63;88.79
59274;BME280;45044;41.572;24.730;2023-07-22T08:43:29;91534.84;;;34.12;84.52
59274;BME280;45044;41.572;24.730;2023-07-22T08:46:00;91535.44;;;34.38;74.80
59274;BME280;45044;41.572;24.730;2023-07-22T08:48:30;91526.13;;;34.00;72.50
59274;BME280;45044;41.572;24.730;2023-07-22T08:51:04;91525.91;;;33.98;79.47
59274;BME280;45044;41.572;24.730;2023-07-22T08:53:31;91526.94;;;32.54;85.35
59274;BME280;45044;41.572;24.730;2023-07-22T08:56:00;91504.41;;;32.34;77.22
59274;BME280;45044;41.572;24.730;2023-07-22T08:58:30;91518.13;;;31.86;74.24
59274;BME280;45044;41.572;24.730;2023-07-22T09:00:58;91522.72;;;31.66;89.22
59274;BME280;45044;41.572;24.730;2023-07-22T09:03:27;91522.28;;;31.62;87.66
59274;BME280;45044;41.572;24.730;2023-07-22T09:05:55;91523.56;;;31.86;76.65
59274;BME280;45044;41.572;24.730;2023-07-22T09:08:22;91515.59;;;31.63;82.61
59274;BME280;45044;41.572;24.730;2023-07-22T09:10:49;91520.53;;;31.96;80.78
59274;BME280;45044;41.572;24.730;2023-07-22T09:13:18;91526.41;;;31.69;83.74
59274;BME280;45044;41.572;24.730;2023-07-22T09:15:46;91521.31;;;31.54;77.10
59274;BME280;45044;41.572;24.730;2023-07-22T09:18:14;91516.75;;;31.74;83.13
59274;BME280;45044;41.572;24.730;2023-07-22T09:20:42;91529.91;;;31.64;76.91
59274;BME280;45044;41.572;24.730;2023-07-22T09:23:09;91526.84;;;32.10;88.31
59274;BME280;45044;41.572;24.730;2023-07-22T09:25:41;91517.91;;;31.84;81.04
59274;BME280;45044;41.572;24.730;2023-07-22T09:28:08;91512.84;;;32.56;90.92
59274;BME280;45044;41.572;24.730;2023-07-22T09:30:39;91517.66;;;32.44;82.32
59274;BME280;45044;41.572;24.730;2023-07-22T09:33:19;91507.75;;;31.85;79.82
59274;BME280;45044;41.572;24.730;2023-07-22T09:35:47;91507.41;;;31.27;77.52
59274;BME280;45044;41.572;24.730;2023-07-22T09:38:15;91515.91;;;31.06;81.85
59274;BME280;45044;41.572;24.730;2023-07-22T09:40:48;91509.53;;;31.46;82.86
59274;BME280;45044;41.572;24.730;2023-07-22T09:43:15;91495.72;;;31.43;76.91
59274;BME280;45044;41.572;24.730;2023-07-22T09:45:46;91502.44;;;31.73;86.58
59274;BME280;45044;41.572;24.730;2023-07-22T09:48:13;91500.53;;;31.62;76.12
59274;BME280;45044;41.572;24.730;2023-07-22T09:50:41;91498.84;;;31.53;78.20
59274;BME280;45044;41.572;24.730;2023-07-22T09:53:08;91489.03;;;31.44;92.52
59274;BME280;45044;41.572;24.730;2023-07-22T09:55:35;91490.28;;;31.43;81.00
59274;BME280;45044;41.572;24.730;2023-07-22T09:58:04;91493.19;;;31.88;81.61
59274;BME280;45044;41.572;24.730;2023-07-22T10:00:38;91489.50;;;31.85;78.97
59274;BME280;45044;41.572;24.730;2023-07-22T10:03:09;91494.59;;;32.00;76.33
59274;BME280;45044;41.572;24.730;2023-07-22T10:05:41;91486.06;;;31.79;80.36
59274;BME280;45044;41.572;24.730;2023-07-22T10:08:10;91465.78;;;32.17;100.00
59274;BME280;45044;41.572;24.730;2023-07-22T10:10:38;91470.91;;;31.95;76.94
59274;BME280;45044;41.572;24.730;2023-07-22T10:13:06;91469.22;;;31.86;72.78
59274;BME280;45044;41.572;24.730;2023-07-22T10:15:34;91472.38;;;31.65;78.92
59274;BME280;45044;41.572;24.730;2023-07-22T10:18:04;91469.41;;;31.63;74.69
59274;BME280;45044;41.572;24.730;2023-07-22T10:20:34;91459.38;;;31.52;81.05
59274;BME280;45044;41.572;24.730;2023-07-22T10:23:04;91460.56;;;31.57;79.37
59274;BME280;45044;41.572;24.730;2023-07-22T10:25:31;91461.84;;;31.50;81.68
59274;BME280;45044;41.572;24.730;2023-07-22T10:27:58;91454.25;;;31.74;78.43
59274;BME280;45044;41.572;24.730;2023-07-22T10:30:25;91452.53;;;31.76;80.66
59274;BME280;45044;41.572;24.730;2023-07-22T10:32:52;91448.56;;;31.41;81.63
59274;BME280;45044;41.572;24.730;2023-07-22T10:38:09;91450.94;;;31.56;82.82
59274;BME280;45044;41.572;24.730;2023-07-22T10:41:10;91449.56;;;31.38;89.49
59274;BME280;45044;41.572;24.730;2023-07-22T10:43:38;91456.47;;;31.44;85.28
59274;BME280;45044;41.572;24.730;2023-07-22T10:46:09;91451.28;;;31.47;73.54
59274;BME280;45044;41.572;24.730;2023-07-22T10:48:38;91454.25;;;31.37;78.11
59274;BME280;45044;41.572;24.730;2023-07-22T10:51:13;91462.75;;;31.28;80.75
59274;BME280;45044;41.572;24.730;2023-07-22T10:53:46;91450.34;;;31.32;82.28
59274;BME280;45044;41.572;24.730;2023-07-22T10:56:19;91457.44;;;31.41;85.63
59274;BME280;45044;41.572;24.730;2023-07-22T11:04:12;91449.59;;;30.95;86.18
59274;BME280;45044;41.572;24.730;2023-07-22T11:12:01;91445.53;;;31.14;80.52
59274;BME280;45044;41.572;24.730;2023-07-22T11:17:16;91452.41;;;31.57;78.20
59274;BME280;45044;41.572;24.730;2023-07-22T11:19:44;91450.47;;;31.52;81.76
59274;BME280;45044;41.572;24.730;2023-07-22T11:22:11;91444.38;;;31.46;76.03
59274;BME280;45044;41.572;24.730;2023-07-22T11:24:40;91446.03;;;31.54;88.14
59274;BME280;45044;41.572;24.730;2023-07-22T11:27:07;91451.19;;;31.58;76.21
59274;BME280;45044;41.572;24.730;2023-07-22T11:29:37;91449.28;;;32.09;88.65
59274;BME280;45044;41.572;24.730;2023-07-22T11:32:04;91438.41;;;31.53;74.63
59274;BME280;45044;41.572;24.730;2023-07-22T11:34:32;91442.72;;;31.67;88.39
59274;BME280;45044;41.572;24.730;2023-07-22T11:36:59;91436.69;;;31.50;73.87
59274;BME280;45044;41.572;24.730;2023-07-22T11:39:27;91449.81;;;31.46;81.47
59274;BME280;45044;41.572;24.730;2023-07-22T11:41:53;91444.66;;;31.42;77.27
59274;BME280;45044;41.572;24.730;2023-07-22T11:44:25;91446.91;;;31.68;85.15
59274;BME280;45044;41.572;24.730;2023-07-22T11:47:00;91445.00;;;31.58;72.69
59274;BME280;45044;41.572;24.730;2023-07-22T11:49:39;91452.53;;;31.40;81.08
59274;BME280;45044;41.572;24.730;2023-07-22T11:52:16;91456.09;;;31.23;81.82
59274;BME280;45044;41.572;24.730;2023-07-22T11:54:47;91453.28;;;31.40;77.17
59274;BME280;45044;41.572;24.730;2023-07-22T11:57:15;91450.13;;;31.30;81.15
59274;BME280;45044;41.572;24.730;2023-07-22T11:59:53;91439.22;;;31.36;76.81
59274;BME280;45044;41.572;24.730;2023-07-22T12:02:22;91443.91;;;31.72;81.88
59274;BME280;45044;41.572;24.730;2023-07-22T12:04:56;91443.72;;;31.64;81.53
59274;BME280;45044;41.572;24.730;2023-07-22T12:07:31;91442.13;;;31.50;72.94
59274;BME280;45044;41.572;24.730;2023-07-22T12:10:00;91433.41;;;31.57;82.82
59274;BME280;45044;41.572;24.730;2023-07-22T12:12:34;91429.53;;;31.77;84.87
59274;BME280;45044;41.572;24.730;2023-07-22T12:15:09;91435.25;;;32.05;86.07
59274;BME280;45044;41.572;24.730;2023-07-22T12:17:48;91437.78;;;31.97;69.10
59274;BME280;45044;41.572;24.730;2023-07-22T12:20:16;91442.22;;;31.94;70.55
59274;BME280;45044;41.572;24.730;2023-07-22T12:22:46;91432.84;;;31.64;74.61
59274;BME280;45044;41.572;24.730;2023-07-22T12:25:13;91433.47;;;31.82;71.72
59274;BME280;45044;41.572;24.730;2023-07-22T12:27:40;91445.53;;;32.12;71.83
59274;BME280;45044;41.572;24.730;2023-07-22T12:30:07;91439.56;;;31.88;72.75
59274;BME280;45044;41.572;24.730;2023-07-22T12:32:34;91425.53;;;31.84;79.92
59274;BME280;45044;41.572;24.730;2023-07-22T12:35:01;91418.56;;;31.89;69.44
59274;BME280;45044;41.572;24.730;2023-07-22T12:37:30;91438.19;;;31.76;73.96
59274;BME280;45044;41.572;24.730;2023-07-22T12:39:57;91426.19;;;31.29;74.52
59274;BME280;45044;41.572;24.730;2023-07-22T12:42:24;91431.72;;;31.54;85.89
59274;BME280;45044;41.572;24.730;2023-07-22T12:44:51;91439.06;;;31.23;78.17
59274;BME280;45044;41.572;24.730;2023-07-22T12:47:18;91437.28;;;31.31;80.53
59274;BME280;45044;41.572;24.730;2023-07-22T12:49:45;91444.50;;;31.59;84.80
59274;BME280;45044;41.572;24.730;2023-07-22T12:52:12;91436.34;;;31.59;78.19
59274;BME280;45044;41.572;24.730;2023-07-22T12:54:49;91441.16;;;31.78;74.02
59274;BME280;45044;41.572;24.730;2023-07-22T12:57:16;91427.78;;;32.11;72.76
59274;BME280;45044;41.572;24.730;2023-07-22T12:59:43;91423.09;;;32.11;80.13
59274;BME280;45044;41.572;24.730;2023-07-22T13:02:13;91432.94;;;32.14;84.84
59274;BME280;45044;41.572;24.730;2023-07-22T13:04:40;91431.66;;;32.41;81.30
59274;BME280;45044;41.572;24.730;2023-07-22T13:07:06;91434.59;;;32.43;79.94